Time;durP1;ratioP1;P1;durP2;ratioP2;P2;SDS_P1;SDS_P2;PMS_P1;PMS_P2;Temp;Humidity;BMP_temperature;BMP_pressure;BME280_temperature;BME280_humidity;BME280_pressure;Samples;Min_cycle;Max_cycle;Signal;HPM_P1;HPM_P2
2022/01/25 00:26:24;;;;;;;13.75;3.70;;;;;;;25.18;31.47;95451.81;4951254;28;20045;-39
2022/01/25 00:29:06;;;;;;;16.15;4.03;;;;;;;25.26;31.31;95452.41;4960293;28;20035;-40
2022/01/25 00:31:41;;;;;;;18.92;4.18;;;;;;;25.21;31.58;95450.53;4946245;28;20114;-40
2022/01/25 00:34:09;;;;;;;12.90;3.92;;;;;;;25.21;31.43;95447.03;4953989;28;20045;-39
2022/01/25 00:36:43;;;;;;;15.65;3.95;;;;;;;25.21;31.19;95450.53;4955797;28;20035;-41
2022/01/25 00:39:09;;;;;;;17.63;4.13;;;;;;;25.22;31.27;95452.09;4949943;28;20035;-40
2022/01/25 00:41:35;;;;;;;16.42;3.95;;;;;;;25.23;31.13;95455.63;4950659;28;20086;-40
2022/01/25 00:44:02;;;;;;;16.85;4.15;;;;;;;25.22;31.35;95451.31;4951996;28;20035;-41
2022/01/25 00:46:43;;;;;;;17.02;3.83;;;;;;;25.24;31.44;95450.00;4949108;28;20039;-40
2022/01/25 00:49:09;;;;;;;15.82;3.92;;;;;;;25.26;31.29;95450.53;4963327;28;20034;-42
2022/01/25 00:51:57;;;;;;;18.90;3.53;;;;;;;25.23;31.31;95444.97;4951814;28;20039;-40
2022/01/25 00:56:56;;;;;;;15.93;3.70;;;;;;;25.21;31.24;95449.69;4950790;28;20050;-41
2022/01/25 00:59:24;;;;;;;16.92;4.10;;;;;;;25.22;31.42;95452.09;4955075;28;20041;-42
2022/01/25 01:01:51;;;;;;;17.02;3.95;;;;;;;25.20;31.23;95451.56;4942122;28;20106;-41
2022/01/25 01:04:17;;;;;;;14.18;3.88;;;;;;;25.20;31.27;95448.13;4979395;28;20043;-40
2022/01/25 01:06:44;;;;;;;14.68;3.63;;;;;;;25.20;31.06;95448.91;4964951;28;20050;-40
2022/01/25 01:09:12;;;;;;;10.43;3.25;;;;;;;25.21;30.99;95455.03;4978574;28;20031;-40
2022/01/25 01:12:03;;;;;;;11.75;3.55;;;;;;;25.21;31.14;95453.19;4986197;28;20057;-40
2022/01/25 01:43:36;;;;;;;13.88;3.70;;;;;;;25.21;30.95;95466.50;4966485;28;20082;-40
2022/01/25 01:46:31;;;;;;;12.70;3.53;;;;;;;25.16;31.20;95477.13;4963615;28;20042;-40
2022/01/25 01:49:01;;;;;;;13.57;3.60;;;;;;;25.20;31.16;95480.06;4976716;28;20069;-41
2022/01/25 01:51:33;;;;;;;11.30;3.88;;;;;;;25.15;30.97;95478.16;4915739;28;20070;-41
2022/01/25 01:54:10;;;;;;;15.38;3.30;;;;;;;25.21;31.03;95474.47;4955423;28;20047;-40
2022/01/25 01:56:40;;;;;;;13.02;3.55;;;;;;;25.14;31.37;95471.25;4953177;28;20050;-40
2022/01/25 01:59:07;;;;;;;;;;;;;;;25.67;30.26;95469.22;4960827;28;20138;-41
2022/01/25 02:01:34;;;;;;;17.23;3.50;;;;;;;25.32;31.08;95470.81;4958847;28;20019;-42
2022/01/25 02:04:00;;;;;;;10.77;3.65;;;;;;;25.26;30.88;95479.81;4978569;28;20075;-39
2022/01/25 02:06:26;;;;;;;11.35;3.33;;;;;;;25.25;31.20;95470.25;4953114;28;20141;-41
2022/01/25 02:08:52;;;;;;;6.85;3.35;;;;;;;25.21;31.10;95465.66;4986375;28;20035;-41
2022/01/25 02:11:20;;;;;;;10.43;3.42;;;;;;;25.20;30.79;95464.88;4948472;28;20050;-42
2022/01/25 02:13:53;;;;;;;8.65;3.20;;;;;;;25.16;30.80;95471.78;4953020;28;20031;-41
2022/01/25 02:16:45;;;;;;;11.90;3.42;;;;;;;25.16;31.10;95461.94;4953099;28;20118;-42
2022/01/25 02:24:38;;;;;;;10.82;3.38;;;;;;;25.17;30.92;95460.09;4979209;28;20122;-41
2022/01/25 02:27:04;;;;;;;7.25;3.28;;;;;;;25.17;30.84;95457.44;4948335;28;20039;-41
2022/01/25 02:29:30;;;;;;;8.95;3.13;;;;;;;25.12;30.98;95449.44;4950842;28;20053;-40
2022/01/25 02:31:57;;;;;;;9.93;3.42;;;;;;;25.15;30.94;95454.22;4953870;28;20089;-42
2022/01/25 02:34:32;;;;;;;9.70;3.25;;;;;;;25.16;30.79;95448.63;4962911;28;20027;-39
2022/01/25 02:37:05;;;;;;;8.40;3.22;;;;;;;25.13;30.80;95448.34;4962013;28;20063;-40
2022/01/25 02:39:31;;;;;;;11.15;3.22;;;;;;;25.18;30.55;95451.03;4944539;28;20063;-43
2022/01/25 02:41:58;;;;;;;11.65;3.15;;;;;;;25.11;30.94;95453.16;4950142;28;20038;-40
2022/01/25 02:44:26;;;;;;;7.35;3.28;;;;;;;25.10;30.95;95455.03;4952570;28;20039;-40
2022/01/25 02:49:19;;;;;;;9.93;3.30;;;;;;;25.15;30.83;95459.53;4947796;28;20046;-40
2022/01/25 02:51:48;;;;;;;7.80;3.08;;;;;;;25.11;30.95;95461.13;4946402;28;20031;-40
2022/01/25 02:54:14;;;;;;;12.53;3.30;;;;;;;25.17;30.64;95460.91;4944503;28;20034;-40
2022/01/25 02:56:42;;;;;;;7.20;3.25;;;;;;;25.16;30.63;95463.81;4949984;28;20289;-41
2022/01/25 02:59:08;;;;;;;7.88;3.10;;;;;;;25.14;30.75;95455.28;4956165;28;20063;-40
2022/01/25 03:01:34;;;;;;;8.35;2.70;;;;;;;25.13;30.94;95459.00;4960285;28;20039;-39
2022/01/25 03:04:02;;;;;;;10.50;3.25;;;;;;;25.14;30.78;95452.63;4937191;28;20031;-40
2022/01/25 03:06:29;;;;;;;7.70;2.90;;;;;;;25.07;31.06;95444.88;4952968;28;20054;-40
2022/01/25 03:09:04;;;;;;;12.32;3.45;;;;;;;25.13;30.83;95443.84;4946432;28;20039;-40
2022/01/25 03:11:32;;;;;;;7.10;2.75;;;;;;;25.11;31.09;95445.97;4977478;28;20035;-41
2022/01/25 03:14:01;;;;;;;6.57;2.90;;;;;;;25.15;30.74;95439.06;4929716;29;20047;-43
2022/01/25 03:16:35;;;;;;;6.20;3.15;;;;;;;25.12;30.74;95444.91;4941585;28;20044;-40
2022/01/25 03:19:27;;;;;;;6.90;3.20;;;;;;;25.12;30.65;95444.91;4975997;28;20043;-40
2022/01/25 03:21:49;;;;;;;8.70;3.30;;;;;;;25.15;30.76;95439.06;4942735;28;20047;-40
2022/01/25 03:24:17;;;;;;;6.35;2.60;;;;;;;25.13;30.50;95435.06;4953487;28;20205;-41
2022/01/25 03:26:42;;;;;;;6.00;2.83;;;;;;;25.15;30.63;95436.41;4976252;28;20064;-40
2022/01/25 03:29:08;;;;;;;7.03;2.97;;;;;;;25.13;30.53;95437.72;4945479;28;20039;-40
2022/01/25 03:31:36;;;;;;;10.50;3.03;;;;;;;25.13;30.59;95435.06;4947101;28;20043;-40
2022/01/25 03:34:01;;;;;;;8.45;2.78;;;;;;;25.19;30.77;95436.69;4958836;28;20035;-40
2022/01/25 03:36:36;;;;;;;5.28;2.70;;;;;;;25.12;30.57;95433.47;4950828;28;20031;-42
2022/01/25 03:39:03;;;;;;;8.25;3.08;;;;;;;25.07;30.98;95428.13;4948178;28;20037;-40
2022/01/25 03:41:33;;;;;;;9.75;3.05;;;;;;;25.09;30.65;95431.31;4964830;28;20073;-39
2022/01/25 03:44:02;;;;;;;6.72;2.78;;;;;;;25.13;30.48;95435.06;4947699;28;20102;-41
2022/01/25 03:46:39;;;;;;;6.35;3.05;;;;;;;25.07;30.88;95436.13;4966011;28;20086;-41
2022/01/25 03:51:56;;;;;;;6.93;2.90;;;;;;;25.08;30.54;95437.72;4935487;28;20042;-40
2022/01/25 03:54:21;;;;;;;6.40;2.80;;;;;;;25.15;30.56;95444.38;4946745;28;20043;-40
2022/01/25 03:56:49;;;;;;;5.50;2.90;;;;;;;25.11;30.63;95451.31;4959611;28;20145;-40
2022/01/25 03:59:17;;;;;;;5.20;2.55;;;;;;;25.10;30.64;95435.59;4983269;28;20030;-40
2022/01/25 04:01:45;;;;;;;5.30;2.80;;;;;;;25.06;30.92;95432.66;4940576;28;20081;-41
2022/01/25 04:04:15;;;;;;;5.70;2.70;;;;;;;25.07;30.71;95433.44;4950108;28;20105;-40
2022/01/25 04:06:53;;;;;;;8.80;2.90;;;;;;;25.11;30.50;95437.19;4982941;28;20095;-41
2022/01/25 04:09:21;;;;;;;7.13;2.90;;;;;;;25.09;30.85;95440.13;4950622;28;20050;-42
2022/01/25 04:11:47;;;;;;;6.85;2.95;;;;;;;25.07;30.59;95433.44;4980473;28;20050;-42
2022/01/25 04:14:24;;;;;;;6.25;2.70;;;;;;;25.09;30.73;95434.81;4963726;28;20054;-40
2022/01/25 04:20:11;;;;;;;5.53;2.67;;;;;;;25.07;30.74;95428.91;4959303;28;20492;-42
2022/01/25 04:25:03;;;;;;;6.63;2.83;;;;;;;25.06;30.77;95426.53;4955997;28;20110;-41
2022/01/25 04:27:29;;;;;;;7.00;3.60;;;;;;;25.11;30.51;95423.88;4950704;28;20055;-42
2022/01/25 04:29:57;;;;;;;5.10;2.80;;;;;;;25.08;30.66;95429.75;4934723;28;20061;-42
2022/01/25 04:32:33;;;;;;;6.10;3.13;;;;;;;25.06;30.76;95421.22;4949511;28;20084;-42
2022/01/25 04:35:11;;;;;;;5.53;2.70;;;;;;;25.05;30.42;95419.63;4951252;28;20187;-42
2022/01/25 04:51:49;;;;;;;6.57;2.65;;;;;;;25.09;30.57;95421.50;4932793;28;20034;-43
2022/01/25 04:59:51;;;;;;;4.95;3.20;;;;;;;25.08;30.48;95414.56;4952172;28;20050;-40
2022/01/25 05:02:29;;;;;;;6.10;3.08;;;;;;;25.10;30.44;95409.78;4958426;28;20055;-41
2022/01/25 05:05:02;;;;;;;5.47;2.78;;;;;;;25.09;30.37;95405.53;4950792;28;20067;-41
2022/01/25 05:08:05;;;;;;;6.00;3.10;;;;;;;25.08;30.64;95413.78;4954275;28;20079;-42
2022/01/25 05:10:19;;;;;;;8.23;3.15;;;;;;;25.05;30.82;95412.41;4949604;28;20052;-43
2022/01/25 05:13:09;;;;;;;6.25;2.90;;;;;;;25.03;30.66;95409.22;4948788;28;20050;-41
2022/01/25 05:18:15;;;;;;;6.30;2.92;;;;;;;25.19;30.33;95418.03;4949327;28;20025;-41
2022/01/25 05:23:38;;;;;;;8.23;3.38;;;;;;;25.08;30.64;95413.78;4957663;28;20038;-43
2022/01/25 05:26:03;;;;;;;7.85;3.10;;;;;;;25.10;30.52;95422.28;4962633;28;20027;-41
2022/01/25 05:28:28;;;;;;;11.10;2.90;;;;;;;25.07;30.63;95414.81;4952100;28;20069;-41
2022/01/25 05:30:56;;;;;;;12.48;3.17;;;;;;;25.08;30.53;95411.91;4954204;28;20090;-41
2022/01/25 05:33:25;;;;;;;7.20;4.15;;;;;;;25.06;30.28;95418.56;4954211;28;20047;-42
2022/01/25 05:35:59;;;;;;;9.80;3.85;;;;;;;25.09;29.84;95423.34;4951552;28;20075;-44
2022/01/25 05:38:25;;;;;;;13.40;4.15;;;;;;;25.13;29.86;95424.41;4958692;28;20106;-42
2022/01/25 05:41:00;;;;;;;11.18;4.47;;;;;;;25.16;29.45;95422.00;4947228;28;20035;-42
2022/01/25 05:46:17;;;;;;;12.02;4.75;;;;;;;25.11;29.18;95423.88;4951783;28;20039;-41
2022/01/25 05:48:43;;;;;;;10.52;4.72;;;;;;;25.11;28.99;95416.72;4975691;28;20031;-41
2022/01/25 05:51:10;;;;;;;11.38;4.80;;;;;;;25.11;28.59;95421.22;4952067;28;20031;-42
2022/01/25 05:53:37;;;;;;;13.02;4.47;;;;;;;25.11;28.71;95426.53;4965125;28;20041;-42
2022/01/25 05:56:04;;;;;;;15.60;5.35;;;;;;;25.11;29.62;95424.69;4952554;28;20043;-40
2022/01/25 05:58:38;;;;;;;13.18;5.32;;;;;;;25.11;29.20;95435.34;4931704;29;20053;-43
2022/01/25 06:01:06;;;;;;;11.40;4.78;;;;;;;25.10;29.12;95433.72;4962858;28;20039;-41
2022/01/25 06:03:32;;;;;;;11.80;4.68;;;;;;;25.13;28.88;95433.22;4967278;28;20034;-42
2022/01/25 06:06:00;;;;;;;10.57;4.43;;;;;;;25.16;28.79;95429.22;4948207;28;20129;-41
2022/01/25 06:08:25;;;;;;;11.10;4.32;;;;;;;25.15;28.94;95432.91;4953746;28;20039;-41
2022/01/25 06:10:53;;;;;;;8.50;3.70;;;;;;;25.15;28.53;95424.94;4952224;28;20041;-44
2022/01/25 06:13:31;;;;;;;8.20;4.18;;;;;;;25.15;29.11;95435.59;4953582;28;20043;-41
2022/01/25 06:15:57;;;;;;;11.98;4.43;;;;;;;25.13;29.15;95433.22;4946240;28;20045;-42
2022/01/25 06:18:23;;;;;;;10.70;5.22;;;;;;;25.12;28.97;95430.81;4946952;28;20332;-41
2022/01/25 06:20:50;;;;;;;10.88;5.07;;;;;;;25.12;28.87;95426.28;4948945;28;20037;-41
2022/01/25 06:23:17;;;;;;;10.57;4.30;;;;;;;25.10;28.89;95428.41;4951068;28;20035;-41
2022/01/25 06:25:45;;;;;;;14.68;4.50;;;;;;;25.09;29.55;95426.81;4945403;28;20043;-42
2022/01/25 06:28:14;;;;;;;11.43;4.15;;;;;;;25.13;30.21;95421.75;4946354;28;20035;-42
2022/01/25 06:30:41;;;;;;;11.48;3.83;;;;;;;25.04;30.36;95431.34;4946774;28;20046;-42
2022/01/25 06:33:09;;;;;;;10.70;3.78;;;;;;;25.13;30.03;95427.88;4948053;28;20058;-44
2022/01/25 06:35:35;;;;;;;11.77;3.78;;;;;;;25.09;31.18;95424.16;4960967;28;20189;-41
2022/01/25 06:38:03;;;;;;;10.90;4.68;;;;;;;25.10;30.56;95428.41;4946532;29;20041;-41
2022/01/25 06:40:31;;;;;;;10.50;5.00;;;;;;;25.12;30.28;95422.81;4960862;28;20043;-42
2022/01/25 06:42:59;;;;;;;16.77;5.18;;;;;;;25.10;30.11;95435.59;4946489;29;20065;-42
2022/01/25 06:45:25;;;;;;;10.52;5.10;;;;;;;25.08;30.18;95432.41;4944429;28;20039;-43
2022/01/25 06:47:56;;;;;;;12.15;4.68;;;;;;;25.06;30.41;95439.84;4977024;28;20035;-42
2022/01/25 06:50:23;;;;;;;9.85;4.35;;;;;;;25.11;30.23;95445.16;4946048;28;20117;-42
2022/01/25 06:52:51;;;;;;;8.27;4.13;;;;;;;25.06;30.46;95432.66;4946706;28;20086;-43
2022/01/25 06:55:17;;;;;;;12.50;4.50;;;;;;;25.02;30.81;95442.25;4943356;29;20060;-43
2022/01/25 06:57:43;;;;;;;9.93;4.00;;;;;;;25.02;31.43;95450.22;4947581;29;20043;-43
2022/01/25 07:00:11;;;;;;;17.90;4.00;;;;;;;25.02;30.44;95452.06;4946981;28;20205;-43
2022/01/25 07:02:38;;;;;;;6.88;3.47;;;;;;;25.07;30.35;95449.41;4946617;28;20050;-42
2022/01/25 07:05:07;;;;;;;7.50;3.50;;;;;;;25.01;30.19;95445.94;4944881;29;20126;-43
2022/01/25 07:07:33;;;;;;;7.35;3.38;;;;;;;25.02;30.72;95449.41;4946097;28;20043;-42
2022/01/25 07:10:01;;;;;;;10.32;3.55;;;;;;;25.09;30.27;95452.63;4943058;29;20045;-41
2022/01/25 07:12:26;;;;;;;9.07;3.33;;;;;;;25.10;30.20;95449.69;4978108;28;20123;-42
2022/01/25 07:14:52;;;;;;;6.95;3.53;;;;;;;25.09;30.10;95452.63;4960377;28;20066;-43
2022/01/25 07:17:17;;;;;;;10.10;3.08;;;;;;;25.07;30.36;95446.75;4944330;29;20035;-42
2022/01/25 07:19:45;;;;;;;9.75;3.20;;;;;;;25.09;30.72;95458.75;4945525;29;20058;-42
2022/01/25 07:22:16;;;;;;;7.90;3.25;;;;;;;25.06;30.24;95451.28;4949155;28;20133;-43
2022/01/25 07:24:41;;;;;;;5.28;2.90;;;;;;;25.09;30.61;95448.13;4980184;28;20049;-43
2022/01/25 07:27:07;;;;;;;9.15;2.90;;;;;;;25.12;30.35;95457.41;4960830;28;20039;-42
2022/01/25 07:29:34;;;;;;;7.60;3.13;;;;;;;25.12;30.24;95458.22;4978774;28;20054;-42
2022/01/25 07:32:02;;;;;;;7.43;2.90;;;;;;;25.10;30.88;95470.19;4977676;28;20156;-42
2022/01/25 07:34:28;;;;;;;7.68;2.95;;;;;;;25.06;30.58;95467.25;4930069;29;20047;-42
2022/01/25 07:36:55;;;;;;;6.72;2.78;;;;;;;25.07;30.43;95470.72;4962365;28;20040;-42
2022/01/25 07:39:33;;;;;;;7.35;2.90;;;;;;;25.08;30.82;95478.44;4976620;28;20031;-42
2022/01/25 07:41:59;;;;;;;7.10;2.78;;;;;;;25.08;30.88;95480.31;4964365;28;20043;-41
2022/01/25 07:44:28;;;;;;;5.68;2.80;;;;;;;25.08;30.43;95478.44;4949938;28;20038;-42
2022/01/25 07:46:57;;;;;;;7.35;2.83;;;;;;;25.10;30.35;95476.31;4948089;29;20039;-44
2022/01/25 07:49:26;;;;;;;5.25;2.83;;;;;;;25.07;30.43;95470.72;4982339;28;20039;-42
2022/01/25 07:51:52;;;;;;;5.97;2.90;;;;;;;25.10;30.74;95478.19;4947511;28;20050;-42
2022/01/25 07:54:26;;;;;;;8.25;2.67;;;;;;;25.11;30.58;95479.75;4981554;28;20039;-42
2022/01/25 07:56:52;;;;;;;6.03;2.80;;;;;;;25.14;30.40;95481.91;4948388;28;20035;-42
2022/01/25 07:59:17;;;;;;;8.32;2.95;;;;;;;25.14;30.33;95473.91;4964384;28;20043;-42
2022/01/25 08:01:43;;;;;;;3.75;2.45;;;;;;;25.13;30.40;95473.13;4951646;28;20035;-42
2022/01/25 08:04:09;;;;;;;8.07;2.92;;;;;;;25.12;30.18;95476.84;4965099;28;20110;-42
2022/01/25 08:06:35;;;;;;;5.32;2.67;;;;;;;25.13;30.33;95472.31;4932764;29;20164;-42
2022/01/25 08:09:03;;;;;;;5.43;2.80;;;;;;;25.11;30.42;95467.28;4954285;28;20035;-43
2022/01/25 08:11:28;;;;;;;7.50;3.00;;;;;;;25.11;30.31;95466.44;4978927;28;20056;-42
2022/01/25 08:14:12;;;;;;;7.72;3.00;;;;;;;25.08;30.73;95467.00;4948820;28;20043;-41
2022/01/25 08:16:38;;;;;;;4.60;2.80;;;;;;;25.12;30.62;95476.84;4952227;28;20073;-41
2022/01/25 08:19:03;;;;;;;4.20;2.70;;;;;;;25.13;30.09;95469.66;4948698;29;20028;-40
2022/01/25 08:21:29;;;;;;;6.70;3.03;;;;;;;25.16;30.41;95474.47;4950253;28;20035;-40
2022/01/25 08:23:54;;;;;;;5.03;3.00;;;;;;;25.15;30.34;95475.50;4949043;29;20034;-40
2022/01/25 08:26:20;;;;;;;6.95;2.80;;;;;;;25.15;30.18;95478.16;4948157;29;20043;-41
2022/01/25 08:28:45;;;;;;;4.75;2.90;;;;;;;25.13;30.01;95467.00;4949289;28;20031;-39
2022/01/25 08:31:12;;;;;;;5.90;2.97;;;;;;;25.11;30.44;95475.25;4947061;28;20061;-40
2022/01/25 08:33:40;;;;;;;7.47;3.00;;;;;;;25.10;30.51;95476.31;4953662;28;20045;-40
2022/01/25 08:36:06;;;;;;;6.28;2.53;;;;;;;25.14;30.25;95484.56;4972115;28;20034;-40
2022/01/25 08:38:31;;;;;;;5.57;2.60;;;;;;;25.13;30.57;95481.13;4981166;28;20110;-40
2022/01/25 08:40:59;;;;;;;3.70;2.63;;;;;;;25.13;30.62;95486.44;4948666;28;20067;-41
2022/01/25 08:43:27;;;;;;;4.32;2.40;;;;;;;25.13;30.43;95485.63;4949773;28;20050;-39
2022/01/25 08:45:55;;;;;;;3.58;2.22;;;;;;;25.17;30.46;95484.06;4949291;28;20035;-39
2022/01/25 08:48:21;;;;;;;7.18;2.80;;;;;;;25.15;30.73;95486.97;4948952;28;20045;-40
2022/01/25 08:50:46;;;;;;;5.03;2.50;;;;;;;25.18;30.27;95480.31;4946394;28;20039;-40
2022/01/25 08:53:20;;;;;;;5.28;2.50;;;;;;;25.18;30.59;95475.00;4948989;28;20034;-41
2022/01/25 08:55:48;;;;;;;4.30;2.58;;;;;;;25.17;30.23;95482.19;4950028;28;20296;-40
2022/01/25 08:58:15;;;;;;;5.47;3.05;;;;;;;25.17;30.49;95494.69;4948207;28;20094;-40
2022/01/25 09:00:41;;;;;;;4.80;2.60;;;;;;;25.18;30.93;95486.44;4977633;28;20038;-40
2022/01/25 09:03:06;;;;;;;5.63;2.65;;;;;;;25.18;30.65;95482.97;4980693;28;20046;-41
2022/01/25 09:05:32;;;;;;;4.93;2.42;;;;;;;25.18;30.53;95483.78;4961206;28;20039;-39
2022/01/25 09:07:58;;;;;;;4.80;2.47;;;;;;;25.19;30.56;95487.25;4964968;28;20047;-39
2022/01/25 09:10:31;;;;;;;4.40;2.30;;;;;;;25.15;30.58;95489.63;4947441;29;20162;-41
2022/01/25 09:12:59;;;;;;;5.82;2.75;;;;;;;25.20;30.84;95496.03;4979473;28;20033;-42
2022/01/25 09:15:30;;;;;;;7.20;2.78;;;;;;;25.16;30.85;95493.09;4950229;28;20082;-40
2022/01/25 09:17:58;;;;;;;6.05;2.60;;;;;;;25.17;30.72;95500.03;4979060;28;20035;-39
2022/01/25 09:20:26;;;;;;;7.88;2.83;;;;;;;25.14;30.98;95504.00;4947562;28;20039;-40
2022/01/25 09:22:54;;;;;;;4.47;2.28;;;;;;;25.14;30.67;95498.66;4949670;29;20069;-40
2022/01/25 09:25:22;;;;;;;8.05;2.85;;;;;;;25.10;30.96;95505.59;4951398;28;20035;-42
2022/01/25 09:27:48;;;;;;;7.20;2.55;;;;;;;25.15;30.90;95504.78;4962606;28;20045;-40
2022/01/25 09:30:18;;;;;;;8.88;3.20;;;;;;;25.13;31.20;95499.75;4948446;28;20039;-40
2022/01/25 09:32:46;;;;;;;7.80;2.85;;;;;;;25.16;30.93;95498.41;4949111;28;20035;-40
2022/01/25 09:35:14;;;;;;;5.05;2.60;;;;;;;25.15;30.46;95499.47;4946127;29;20043;-41
2022/01/25 09:37:42;;;;;;;7.07;2.90;;;;;;;25.17;30.90;95494.69;4962756;28;20061;-41
2022/01/25 09:40:10;;;;;;;6.57;2.90;;;;;;;25.14;31.20;95495.22;4978997;28;20039;-40
2022/01/25 09:42:38;;;;;;;6.72;2.60;;;;;;;25.11;30.86;95493.06;4979838;28;20035;-41
2022/01/25 09:45:04;;;;;;;12.20;3.13;;;;;;;25.14;30.87;95498.66;4949117;28;20044;-43
2022/01/25 09:47:29;;;;;;;10.50;2.78;;;;;;;25.17;31.08;95500.81;4946778;28;20094;-40
2022/01/25 09:49:55;;;;;;;6.45;2.58;;;;;;;25.17;30.69;95508.00;4945149;28;20058;-40
2022/01/25 09:52:20;;;;;;;6.65;2.33;;;;;;;25.15;30.82;95505.59;4977959;28;20074;-39
2022/01/25 09:54:56;;;;;;;4.75;2.58;;;;;;;25.10;31.58;95510.91;4995663;28;20121;-41
2022/01/25 09:57:22;;;;;;;8.45;4.60;;;;;;;25.10;31.27;95508.25;4950092;28;20161;-39
2022/01/25 09:59:50;;;;;;;9.57;4.93;;;;;;;25.05;30.94;95515.41;4978861;28;20175;-41
2022/01/25 10:02:54;;;;;;;9.07;4.60;;;;;;;25.12;30.59;95515.97;4947261;28;20114;-40
2022/01/25 10:05:38;;;;;;;9.18;4.68;;;;;;;25.13;30.50;95517.56;4934809;28;20071;-42
2022/01/25 10:08:17;;;;;;;6.95;3.97;;;;;;;25.03;30.90;95513.00;4961124;28;20066;-40
2022/01/25 10:10:45;;;;;;;5.90;4.05;;;;;;;25.05;30.64;95515.41;4946820;29;20039;-41
2022/01/25 10:13:26;;;;;;;8.60;4.32;;;;;;;25.05;30.91;95515.41;4950102;28;20046;-41
2022/01/25 10:16:13;;;;;;;8.00;3.55;;;;;;;25.08;30.83;95512.25;4939984;28;20075;-40
2022/01/25 10:18:42;;;;;;;7.45;3.60;;;;;;;25.03;30.85;95517.53;4927890;29;20106;-40
2022/01/25 10:21:28;;;;;;;6.57;3.20;;;;;;;25.02;31.29;95515.94;4930620;29;20042;-40
2022/01/25 10:24:04;;;;;;;7.90;3.20;;;;;;;25.00;31.33;95510.06;4946355;28;20046;-40
2022/01/25 10:26:50;;;;;;;8.43;3.40;;;;;;;25.07;30.99;95518.63;4930346;29;20098;-39
2022/01/25 10:29:31;;;;;;;9.80;3.50;;;;;;;25.04;31.29;95514.63;4927766;29;20046;-39
2022/01/25 10:32:09;;;;;;;12.75;4.05;;;;;;;25.04;30.58;95516.50;4923072;29;20130;-41
2022/01/25 10:34:41;;;;;;;9.65;4.35;;;;;;;25.04;31.12;95521.81;4926023;29;20050;-40
2022/01/25 10:37:20;;;;;;;9.48;3.58;;;;;;;25.06;30.63;95512.50;4939795;28;20047;-40
2022/01/25 10:39:51;;;;;;;14.80;4.03;;;;;;;25.06;30.89;95512.50;4926758;29;20044;-39
2022/01/25 10:42:27;;;;;;;11.60;4.07;;;;;;;25.02;31.03;95511.44;4936159;29;20047;-40
2022/01/25 10:44:56;;;;;;;14.48;4.78;;;;;;;25.06;30.63;95509.84;4945945;28;20039;-40
2022/01/25 10:47:42;;;;;;;12.38;3.65;;;;;;;25.11;31.11;95514.38;4950098;28;20069;-42
2022/01/25 10:50:31;;;;;;;14.85;3.53;;;;;;;25.14;31.02;95508.53;4956030;28;20100;-39
2022/01/25 10:53:16;;;;;;;14.70;3.88;;;;;;;25.11;30.95;95507.19;4958653;28;20043;-39
2022/01/25 10:55:46;;;;;;;13.25;3.67;;;;;;;25.08;31.08;95506.91;4974417;28;20042;-40
2022/01/25 10:58:12;;;;;;;12.38;3.42;;;;;;;25.10;31.03;95510.13;4963961;28;20043;-40
2022/01/25 11:00:49;;;;;;;12.70;3.60;;;;;;;25.08;31.17;95506.91;4948962;28;20027;-40
2022/01/25 11:03:46;;;;;;;13.27;3.70;;;;;;;25.23;31.09;95500.88;4947759;28;20050;-40
2022/01/25 11:06:26;;;;;;;17.25;3.83;;;;;;;25.10;31.29;95499.47;4973311;28;20059;-40
2022/01/25 11:09:00;;;;;;;;;;;;;;;25.61;30.33;95498.75;4986566;28;20078;-42
2022/01/25 11:11:34;;;;;;;11.57;3.35;;;;;;;25.22;30.81;95492.03;4985120;28;20046;-41
2022/01/25 11:14:50;;;;;;;20.13;4.63;;;;;;;25.16;31.25;95493.88;5000392;28;20045;-40
2022/01/25 11:16:47;;;;;;;15.98;3.60;;;;;;;25.18;31.08;95491.75;4977824;28;20046;-42
2022/01/25 11:19:13;;;;;;;15.40;3.70;;;;;;;25.13;30.94;95490.94;4972346;28;20031;-42
2022/01/25 11:21:51;;;;;;;13.10;3.88;;;;;;;25.11;31.30;95493.88;4977776;28;20042;-40
2022/01/25 11:24:17;;;;;;;15.23;3.30;;;;;;;25.14;31.12;95485.38;4956696;28;20126;-41
2022/01/25 11:26:46;;;;;;;21.15;4.53;;;;;;;25.13;31.45;95488.28;4973599;28;20128;-41
2022/01/25 11:29:22;;;;;;;14.25;3.47;;;;;;;25.12;31.32;95481.38;4955346;28;20043;-41
2022/01/25 11:31:53;;;;;;;19.60;4.05;;;;;;;25.11;31.76;95487.75;4987062;28;20047;-40
2022/01/25 11:34:21;;;;;;;17.90;4.30;;;;;;;25.11;31.75;95477.09;4974546;28;20046;-40
2022/01/25 11:36:55;;;;;;;18.25;3.97;;;;;;;25.11;31.24;95480.59;4981088;28;20137;-42
2022/01/25 11:39:23;;;;;;;18.90;4.03;;;;;;;25.13;31.51;95480.28;5003185;28;20070;-42
2022/01/25 11:42:19;;;;;;;19.00;4.28;;;;;;;25.23;31.51;95476.91;4985349;28;20043;-40
2022/01/25 11:44:58;;;;;;;33.40;5.22;;;;;;;25.13;31.52;95474.97;4985958;28;20054;-41
2022/01/25 11:47:42;;;;;;;25.88;4.45;;;;;;;25.15;30.98;95475.50;4971940;28;20129;-45
2022/01/25 11:50:09;;;;;;;24.85;4.90;;;;;;;25.16;31.33;95477.91;4975714;28;20113;-41
2022/01/25 11:52:35;;;;;;;18.58;4.95;;;;;;;25.23;31.27;95474.25;4972466;28;20042;-41
2022/01/25 11:55:18;;;;;;;29.67;5.50;;;;;;;25.29;31.11;95473.97;4966499;28;20050;-41
2022/01/25 11:58:05;;;;;;;25.08;4.95;;;;;;;25.19;31.44;95473.94;4964533;28;20042;-42
2022/01/25 12:00:52;;;;;;;22.77;5.40;;;;;;;25.32;31.22;95465.47;4960310;28;20047;-41
2022/01/25 12:03:26;;;;;;;26.73;5.07;;;;;;;25.24;31.18;95468.63;4943444;28;20047;-42
2022/01/25 12:06:12;;;;;;;20.38;5.05;;;;;;;25.23;31.13;95463.59;4972147;28;20054;-41
2022/01/25 12:08:52;;;;;;;22.90;5.07;;;;;;;25.26;31.46;95458.53;4971891;28;20154;-42
2022/01/25 12:11:29;;;;;;;28.20;5.40;;;;;;;25.29;31.47;95458.00;4970742;28;20069;-41
2022/01/25 12:14:22;;;;;;;25.10;4.88;;;;;;;25.33;31.24;95453.75;4985904;28;20106;-41
2022/01/25 12:17:05;;;;;;;26.13;5.18;;;;;;;25.32;31.16;95456.66;4971346;28;20206;-40
2022/01/25 12:19:47;;;;;;;23.73;4.97;;;;;;;25.26;31.10;95447.09;4973099;28;20042;-40
2022/01/25 12:22:26;;;;;;;27.75;5.18;;;;;;;25.30;31.39;95443.63;4950573;28;20047;-41
2022/01/25 12:25:15;;;;;;;25.20;5.40;;;;;;;25.29;31.20;95444.69;4944755;28;20106;-41
2022/01/25 12:27:47;;;;;;;24.02;5.25;;;;;;;25.35;31.21;95440.97;4977592;28;20069;-41
2022/01/25 12:30:25;;;;;;;26.83;5.00;;;;;;;25.35;31.10;95438.31;4946236;29;20047;-43
2022/01/25 12:33:15;;;;;;;20.27;5.03;;;;;;;25.34;31.48;95434.06;4978567;28;20043;-42
2022/01/25 12:35:42;;;;;;;;;;;;;;;25.89;30.26;95431.63;4950009;28;20086;-42
2022/01/25 12:38:23;;;;;;;25.70;5.07;;;;;;;25.53;31.08;95436.16;4950138;29;20104;-42
2022/01/25 12:40:53;;;;;;;30.83;5.47;;;;;;;25.41;31.09;95428.44;4981103;28;20039;-41
2022/01/25 12:43:24;;;;;;;22.07;5.33;;;;;;;25.46;30.97;95425.78;4951288;28;20039;-42
2022/01/25 12:45:59;;;;;;;26.67;5.15;;;;;;;25.48;31.10;95423.66;4929359;29;20341;-40
2022/01/25 12:48:49;;;;;;;26.58;5.15;;;;;;;25.50;31.12;95415.41;4949135;29;20066;-41
2022/01/25 12:51:18;;;;;;;;;;;;;;;26.04;30.32;95425.47;4983587;28;20052;-41
2022/01/25 12:53:54;;;;;;;32.20;5.63;;;;;;;25.62;31.46;95429.25;4968121;28;19917;-41
2022/01/25 12:56:25;;;;;;;31.25;5.45;;;;;;;25.55;31.57;95420.72;4956023;28;20054;-43
2022/01/25 12:59:03;;;;;;;30.27;5.32;;;;;;;25.56;31.28;95420.47;4970040;28;20118;-42
2022/01/25 13:01:29;;;;;;;23.88;5.18;;;;;;;25.59;31.62;95419.16;4967432;28;20053;-41
2022/01/25 13:04:01;;;;;;;36.20;6.10;;;;;;;25.58;31.40;95417.53;4951608;28;20034;-40
2022/01/25 13:06:31;;;;;;;30.40;5.57;;;;;;;25.58;31.70;95417.53;4968065;28;20106;-41
2022/01/25 13:17:06;;;;;;;31.65;6.63;;;;;;;25.58;31.70;95403.44;4968305;28;20042;-41
2022/01/25 13:19:46;;;;;;;32.20;5.80;;;;;;;25.66;31.35;95408.19;4983048;28;20053;-40
2022/01/25 13:22:14;;;;;;;26.65;5.70;;;;;;;25.69;31.56;95413.00;4959196;28;20074;-41
2022/01/25 13:24:55;;;;;;;39.67;6.72;;;;;;;25.65;31.35;95410.06;4950744;28;20035;-40
2022/01/25 13:27:23;;;;;;;31.38;6.60;;;;;;;25.70;31.42;95399.41;4948262;28;20039;-42
2022/01/25 13:32:55;;;;;;;45.75;7.00;;;;;;;25.75;31.61;95401.28;4962829;28;20038;-42
2022/01/25 13:35:30;;;;;;;28.13;6.45;;;;;;;25.76;31.63;95394.88;4949461;28;20050;-41
2022/01/25 13:38:38;;;;;;;27.33;5.70;;;;;;;25.78;31.47;95395.41;4948602;28;20053;-41
2022/01/25 13:46:40;;;;;;;32.50;6.70;;;;;;;25.84;31.85;95386.34;4964541;28;20523;-41